Elgin, Iowa
Current Conditions -  °F | °C
As of 6:55 PM on Saturday 22 Nov 2014 (Local Time) from KDEH Reporting Station
Haze Haze  
Wind Chill: 37°   Ceiling: Unl
Heat Index: 43°   Visibility: 5mi
Dew Point: 43°   Wind: 9mph
Humidity: 100%   Direction: 200°SSW
Pressure: 29.68"   Gusts: NA
Location:  42.96°N, 91.63°W
Report Text: KDEH 230055Z AUTO 20008KT 5SM BR SCT015 06/06 A2968 RMK AO2
Loading
Personal Weather Stations






























Interactive Weather Map New forecast layout! Learn more

10-Day Weather Forecast

Advertisements
Track Severe Weather on mobile